Time;durP1;ratioP1;P1;durP2;ratioP2;P2;SDS_P1;SDS_P2;PMS_P1;PMS_P2;Temp;Humidity;BMP_temperature;BMP_pressure;BME280_temperature;BME280_humidity;BME280_pressure;Samples;Min_cycle;Max_cycle;Signal;HPM_P1;HPM_P2
2023/10/21 00:01:29;;;;;;;27.30;23.60;;;;;;;50.52;8.55;98162.59;108485;1285;22770;-84
2023/10/21 00:04:06;;;;;;;34.20;24.20;;;;;;;50.39;8.71;98175.27;108480;1285;22010;-85
2023/10/21 00:06:39;;;;;;;30.20;23.90;;;;;;;50.47;8.74;98178.86;108366;1285;22444;-82
2023/10/21 00:09:32;;;;;;;29.70;24.10;;;;;;;50.64;8.69;98168.85;108396;1285;21987;-84
2023/10/21 00:12:18;;;;;;;26.90;24.00;;;;;;;50.74;8.41;98161.52;108470;1285;23010;-83
2023/10/21 00:14:55;;;;;;;29.30;25.60;;;;;;;50.67;8.59;98158.58;108715;1280;23710;-83
2023/10/21 00:17:53;;;;;;;28.20;24.60;;;;;;;50.56;8.82;98164.80;108757;1280;21994;-84
2023/10/21 00:20:28;;;;;;;27.20;23.80;;;;;;;50.69;8.66;98171.86;108744;1280;21982;-82
2023/10/21 00:23:17;;;;;;;31.00;25.60;;;;;;;50.77;8.67;98174.02;108543;1284;21996;-84
2023/10/21 00:25:50;;;;;;;29.60;25.30;;;;;;;50.75;8.51;98176.69;108400;1284;22042;-84
2023/10/21 00:28:27;;;;;;;30.80;25.80;;;;;;;50.68;8.59;98178.65;108397;1284;23660;-83
2023/10/21 00:31:11;;;;;;;28.00;24.70;;;;;;;50.68;8.54;98174.78;108424;1284;23772;-83
2023/10/21 00:33:42;;;;;;;29.90;24.90;;;;;;;50.66;8.66;98172.62;108472;1276;24758;-83
2023/10/21 00:36:16;;;;;;;28.30;25.20;;;;;;;50.64;8.69;98179.48;108262;1289;22000;-83
2023/10/21 00:38:54;;;;;;;27.50;22.60;;;;;;;50.65;8.74;98192.02;108347;1283;22008;-82
2023/10/21 00:41:40;;;;;;;30.80;26.00;;;;;;;50.88;8.52;98194.23;108412;1283;23644;-85
2023/10/21 00:44:25;;;;;;;32.30;26.40;;;;;;;51.06;8.41;98191.64;108462;1282;22461;-84
2023/10/21 00:47:00;;;;;;;29.70;25.70;;;;;;;51.15;8.43;98189.67;108322;1285;24439;-86
2023/10/21 00:50:00;;;;;;;31.50;26.80;;;;;;;50.99;8.35;98195.21;108440;1285;24410;-86
2023/10/21 00:52:48;;;;;;;;;;;;;;;51.11;8.38;98203.29;108430;1285;22002;-86
2023/10/21 00:55:23;;;;;;;30.20;26.10;;;;;;;51.46;8.23;98202.22;108099;1290;23892;-84
2023/10/21 00:58:02;;;;;;;31.40;26.90;;;;;;;51.18;8.46;98212.48;108074;1283;23748;-83
2023/10/21 01:00:46;;;;;;;36.90;28.40;;;;;;;51.03;8.49;98211.52;108215;1285;21994;-82
2023/10/21 01:03:39;;;;;;;32.40;27.50;;;;;;;50.89;8.43;98214.23;108470;1280;22006;-84
2023/10/21 01:06:18;;;;;;;32.10;26.50;;;;;;;50.76;8.46;98216.69;108361;1285;22275;-82
2023/10/21 01:09:00;;;;;;;35.20;25.60;;;;;;;50.92;8.53;98216.48;108451;1285;22236;-83
2023/10/21 01:11:36;;;;;;;29.60;26.40;;;;;;;51.07;8.46;98217.51;108359;1282;23805;-84
2023/10/21 01:14:15;;;;;;;37.00;29.70;;;;;;;51.03;8.41;98217.08;108724;1280;22453;-84
2023/10/21 01:16:51;;;;;;;32.70;28.10;;;;;;;50.94;8.57;98218.95;108709;1280;23773;-83
2023/10/21 01:19:25;;;;;;;37.00;31.60;;;;;;;51.01;8.53;98222.52;108562;1280;22007;-83
2023/10/21 01:22:05;;;;;;;44.70;34.80;;;;;;;51.21;8.30;98221.65;108813;1280;22938;-83
2023/10/21 01:24:47;;;;;;;;;;;;;;;;;;;;;
2023/10/21 01:27:30;;;;;;;;;;;;;;;51.07;8.46;98226.24;108401;1287;23833;-84
2023/10/21 01:30:13;;;;;;;43.50;34.60;;;;;;;51.38;8.43;98223.89;108385;1287;22107;-84
2023/10/21 01:32:50;;;;;;;39.90;29.90;;;;;;;51.06;8.50;98224.16;108378;1287;21999;-85
2023/10/21 01:35:33;;;;;;;39.70;32.60;;;;;;;51.01;8.49;98227.21;108362;1283;22094;-85
2023/10/21 01:38:40;;;;;;;;;;;;;;;;;;;;;
2023/10/21 01:41:24;;;;;;;38.10;32.10;;;;;;;51.07;8.30;98240.79;108309;1290;23878;-83
2023/10/21 01:44:01;;;;;;;40.20;34.00;;;;;;;50.89;8.56;98235.63;108072;1291;24483;-83
2023/10/21 01:46:37;;;;;;;40.80;31.20;;;;;;;50.89;8.45;98221.75;108244;1291;22025;-82
2023/10/21 01:49:19;;;;;;;35.60;31.80;;;;;;;50.83;8.42;98213.52;107977;1291;23743;-84
2023/10/21 01:52:05;;;;;;;;;;;;;;;;;;;;;
2023/10/21 01:54:46;;;;;;;38.50;33.60;;;;;;;50.63;8.43;98240.37;107979;1290;22012;-84
2023/10/21 01:57:22;;;;;;;45.40;34.70;;;;;;;50.68;8.43;98262.34;107734;1294;23250;-83
2023/10/21 02:00:08;;;;;;;41.90;34.80;;;;;;;50.71;8.39;98272.38;107813;1292;22009;-84
2023/10/21 02:02:54;;;;;;;37.60;32.70;;;;;;;50.98;8.50;98279.46;107830;1292;22005;-83
2023/10/21 02:05:32;;;;;;;31.20;28.10;;;;;;;50.99;8.50;98284.39;107869;1292;22006;-84
2023/10/21 02:08:06;;;;;;;32.10;28.60;;;;;;;51.00;8.43;98285.37;107959;1292;22003;-83
2023/10/21 02:10:45;;;;;;;36.90;30.40;;;;;;;51.03;8.45;98293.33;107628;1296;22113;-82
2023/10/21 02:13:24;;;;;;;35.40;31.20;;;;;;;51.10;8.34;98294.53;107811;1290;22783;-83
2023/10/21 02:16:00;;;;;;;35.90;30.50;;;;;;;51.09;8.42;98295.79;108300;1285;21993;-82
2023/10/21 02:18:46;;;;;;;33.30;28.60;;;;;;;51.15;8.16;98303.64;108199;1291;23653;-82
2023/10/21 02:21:24;;;;;;;35.00;27.70;;;;;;;51.06;8.35;98311.15;108042;1291;22001;-82
2023/10/21 02:23:58;;;;;;;34.80;28.10;;;;;;;51.01;8.31;98318.70;108126;1291;23007;-83
2023/10/21 02:26:30;;;;;;;31.50;25.80;;;;;;;50.96;8.19;98323.33;108029;1291;22079;-83
2023/10/21 02:29:01;;;;;;;31.90;26.40;;;;;;;50.72;8.56;98332.41;107468;1293;23774;-83
2023/10/21 02:31:40;;;;;;;34.30;26.20;;;;;;;50.93;8.23;98332.33;107497;1297;23654;-85
2023/10/21 02:34:20;;;;;;;33.60;27.40;;;;;;;50.82;8.62;98329.01;107460;1298;22091;-84
2023/10/21 02:37:08;;;;;;;34.10;27.60;;;;;;;50.83;8.55;98318.06;107585;1292;22046;-83
2023/10/21 02:39:52;;;;;;;34.00;27.30;;;;;;;50.83;8.39;98311.01;107688;1292;23043;-83
2023/10/21 02:42:37;;;;;;;34.50;26.80;;;;;;;50.59;8.43;98305.34;105405;1292;3236359;-83
2023/10/21 02:45:21;;;;;;;28.30;24.20;;;;;;;50.49;8.49;98309.33;107837;1292;22015;-83
2023/10/21 02:47:58;;;;;;;38.70;30.00;;;;;;;50.58;8.53;98327.55;107746;1292;23779;-83
2023/10/21 02:50:44;;;;;;;35.90;30.50;;;;;;;50.45;8.56;98337.64;108180;1286;22134;-83
2023/10/21 02:53:18;;;;;;;31.50;27.30;;;;;;;50.30;8.62;98337.71;108350;1286;22763;-83
2023/10/21 02:56:00;;;;;;;34.40;30.70;;;;;;;50.30;8.74;98336.48;108321;1282;22543;-81
2023/10/21 02:58:48;;;;;;;32.90;27.20;;;;;;;50.41;8.55;98334.89;108027;1291;22089;-81
2023/10/21 03:01:25;;;;;;;32.80;25.40;;;;;;;50.52;8.58;98329.59;107835;1291;22322;-81
2023/10/21 03:04:08;;;;;;;28.50;20.90;;;;;;;50.61;8.50;98331.39;108000;1288;22038;-86
2023/10/21 03:06:46;;;;;;;30.70;25.90;;;;;;;50.77;8.45;98340.21;108121;1289;23166;-84
2023/10/21 03:09:32;;;;;;;31.30;24.60;;;;;;;50.82;8.48;98334.33;108171;1290;22009;-83
2023/10/21 03:12:12;;;;;;;28.60;24.20;;;;;;;50.65;8.60;98330.41;108179;1285;22120;-86
2023/10/21 03:14:49;;;;;;;31.40;26.10;;;;;;;50.84;8.42;98326.73;108377;1289;21989;-84
2023/10/21 03:17:27;;;;;;;32.60;26.50;;;;;;;50.93;8.33;98326.39;108433;1285;24399;-82
2023/10/21 03:20:04;;;;;;;40.00;29.70;;;;;;;50.96;8.44;98325.05;108474;1280;22021;-82
2023/10/21 03:22:47;;;;;;;33.20;29.20;;;;;;;50.95;8.34;98328.71;108427;1285;23815;-82
2023/10/21 03:25:23;;;;;;;31.30;27.20;;;;;;;50.97;8.42;98330.39;108670;1285;23647;-84
2023/10/21 03:28:02;;;;;;;;;;;;;;;51.10;8.30;98330.11;108396;1289;22012;-84
2023/10/21 03:30:48;;;;;;;28.50;23.00;;;;;;;51.46;8.21;98326.48;108330;1289;22009;-83
2023/10/21 03:33:28;;;;;;;36.90;28.10;;;;;;;51.30;8.31;98331.77;108356;1286;22027;-84
2023/10/21 03:36:14;;;;;;;32.30;28.50;;;;;;;51.21;8.33;98335.71;108377;1286;22999;-84
2023/10/21 03:38:46;;;;;;;35.30;28.70;;;;;;;51.08;8.46;98343.71;108349;1286;22021;-83
2023/10/21 03:41:26;;;;;;;34.70;31.00;;;;;;;51.11;8.40;98346.15;108394;1286;22003;-83
2023/10/21 03:43:58;;;;;;;49.30;41.80;;;;;;;51.15;8.52;98346.81;108430;1286;21995;-83
2023/10/21 03:46:48;;;;;;;54.70;47.30;;;;;;;51.17;8.39;98338.67;108621;1280;21992;-83
2023/10/21 03:49:22;;;;;;;47.10;38.30;;;;;;;51.16;8.41;98341.53;108674;1280;22934;-83
2023/10/21 03:52:01;;;;;;;44.80;36.50;;;;;;;51.12;8.40;98346.54;108416;1284;23088;-83
2023/10/21 03:54:33;;;;;;;43.60;35.30;;;;;;;51.10;8.37;98350.27;108520;1284;23023;-83
2023/10/21 03:57:08;;;;;;;47.80;34.70;;;;;;;51.03;8.38;98355.48;108640;1284;22076;-83
2023/10/21 03:59:41;;;;;;;38.70;33.80;;;;;;;51.06;8.48;98359.88;108522;1284;22006;-84
2023/10/21 04:02:14;;;;;;;41.10;34.00;;;;;;;51.06;8.63;98359.87;108485;1284;22128;-83
2023/10/21 04:04:46;;;;;;;42.20;34.60;;;;;;;51.00;8.54;98358.20;108684;1283;23636;-84
2023/10/21 04:07:23;;;;;;;39.50;33.10;;;;;;;51.07;8.40;98359.58;108710;1283;23818;-82
2023/10/21 04:10:06;;;;;;;45.90;34.20;;;;;;;51.19;8.33;98363.70;108614;1280;22454;-82
2023/10/21 04:12:40;;;;;;;41.50;33.20;;;;;;;51.27;8.35;98359.36;108768;1280;22418;-83
2023/10/21 04:15:32;;;;;;;40.80;33.60;;;;;;;51.37;8.26;98357.19;108809;1280;22004;-83
2023/10/21 04:18:06;;;;;;;42.10;34.30;;;;;;;51.22;8.20;98357.06;108742;1280;22009;-83
2023/10/21 04:20:46;;;;;;;41.20;31.10;;;;;;;51.22;8.32;98355.41;108718;1283;22149;-82
2023/10/21 04:23:25;;;;;;;41.40;32.40;;;;;;;51.19;8.37;98357.27;108640;1284;22015;-83
2023/10/21 04:26:05;;;;;;;38.50;30.90;;;;;;;51.28;8.42;98366.37;108539;1283;24406;-83
2023/10/21 04:28:49;;;;;;;39.10;31.30;;;;;;;51.23;8.24;98365.98;108534;1283;23021;-83
2023/10/21 04:31:33;;;;;;;37.60;29.20;;;;;;;51.21;8.13;98366.35;108457;1284;22022;-83
2023/10/21 04:34:08;;;;;;;41.70;34.70;;;;;;;51.21;8.31;98358.50;108677;1283;23082;-83
2023/10/21 04:36:45;;;;;;;43.00;31.80;;;;;;;51.05;8.27;98358.43;108351;1288;22378;-83
2023/10/21 04:39:22;;;;;;;37.90;31.90;;;;;;;51.00;8.45;98365.51;108185;1285;22010;-83
2023/10/21 04:42:01;;;;;;;38.80;29.30;;;;;;;50.97;8.46;98362.46;108414;1286;23667;-82
2023/10/21 04:44:41;;;;;;;34.50;28.60;;;;;;;50.92;8.47;98361.20;108445;1286;22859;-84
2023/10/21 04:47:17;;;;;;;29.40;25.80;;;;;;;50.96;8.42;98367.84;108380;1286;22485;-82
2023/10/21 04:49:57;;;;;;;31.90;26.20;;;;;;;51.12;8.33;98375.85;108436;1286;22035;-84
2023/10/21 04:52:37;;;;;;;32.70;25.70;;;;;;;51.06;8.38;98390.50;108417;1286;22024;-82
2023/10/21 04:55:11;;;;;;;33.20;26.40;;;;;;;51.20;8.46;98400.39;108548;1272;23068;-83
2023/10/21 04:57:43;;;;;;;33.50;28.20;;;;;;;51.04;8.40;98408.50;108734;1280;22025;-81
2023/10/21 05:00:19;;;;;;;34.60;26.80;;;;;;;51.03;8.38;98409.91;108305;1288;23061;-80
2023/10/21 05:02:55;;;;;;;29.90;22.80;;;;;;;51.11;8.24;98408.59;107852;1289;22016;-78
2023/10/21 05:05:34;;;;;;;32.10;26.20;;;;;;;51.05;8.49;98418.20;107818;1293;22022;-79
2023/10/21 05:08:08;;;;;;;28.80;24.00;;;;;;;51.06;8.62;98438.39;107851;1293;22024;-79
2023/10/21 05:10:44;;;;;;;27.10;23.60;;;;;;;51.13;8.37;98447.91;107949;1291;23652;-79
2023/10/21 05:13:19;;;;;;;30.60;25.80;;;;;;;51.11;8.44;98450.65;107880;1293;22196;-80
2023/10/21 05:16:01;;;;;;;32.60;26.00;;;;;;;51.11;8.32;98450.91;107664;1296;22029;-80
2023/10/21 05:18:43;;;;;;;43.90;31.50;;;;;;;51.10;8.35;98453.91;108116;1289;22022;-80
2023/10/21 05:21:17;;;;;;;37.60;29.60;;;;;;;51.03;8.36;98465.95;108502;1284;22031;-80
2023/10/21 05:23:54;;;;;;;33.00;29.30;;;;;;;51.10;8.37;98478.11;108384;1284;23651;-80
2023/10/21 05:26:45;;;;;;;34.90;28.60;;;;;;;51.22;8.26;98500.99;108466;1284;22103;-80
2023/10/21 05:29:49;;;;;;;35.60;28.40;;;;;;;51.36;8.37;98527.96;108452;1284;21992;-82
2023/10/21 05:32:23;;;;;;;37.70;31.30;;;;;;;51.42;8.41;98520.67;108428;1284;23081;-81
2023/10/21 05:35:00;;;;;;;45.50;40.70;;;;;;;51.30;8.27;98513.81;108352;1285;22003;-79
2023/10/21 05:37:37;;;;;;;41.90;37.10;;;;;;;51.26;8.27;98507.16;108290;1285;23758;-79
2023/10/21 05:40:12;;;;;;;46.30;40.70;;;;;;;51.19;8.41;98500.48;108438;1285;23104;-81
2023/10/21 05:42:43;;;;;;;46.30;36.60;;;;;;;51.12;8.34;98499.09;108337;1285;22089;-79
2023/10/21 05:45:14;;;;;;;44.40;38.70;;;;;;;51.27;8.36;98501.07;108024;1290;22024;-80
2023/10/21 05:47:45;;;;;;;50.20;39.60;;;;;;;51.34;8.24;98507.14;107971;1290;22007;-80
2023/10/21 05:50:21;;;;;;;47.60;39.90;;;;;;;51.37;8.20;98518.60;108006;1290;23747;-79
2023/10/21 05:52:54;;;;;;;44.10;35.30;;;;;;;51.31;8.23;98539.00;108314;1286;22106;-80
2023/10/21 05:55:45;;;;;;;49.50;36.40;;;;;;;51.24;8.39;98535.86;108320;1286;21996;-80
2023/10/21 05:58:22;;;;;;;47.90;38.50;;;;;;;51.19;8.24;98524.13;108144;1286;21998;-80
2023/10/21 06:01:12;;;;;;;49.30;37.80;;;;;;;51.27;8.20;98537.73;108313;1283;21944;-80
2023/10/21 06:03:47;;;;;;;46.40;36.60;;;;;;;51.33;8.18;98554.52;108612;1280;22748;-80
2023/10/21 06:06:32;;;;;;;84.30;50.60;;;;;;;51.31;8.27;98576.23;108729;1280;23724;-79
2023/10/21 06:09:09;;;;;;;79.20;53.10;;;;;;;51.12;8.14;98587.73;108738;1280;22484;-81
2023/10/21 06:12:23;;;;;;;61.20;48.70;;;;;;;51.39;8.34;98574.13;108725;1280;21989;-80
2023/10/21 06:15:05;;;;;;;41.10;34.80;;;;;;;51.52;8.32;98576.16;108696;1280;22391;-79
2023/10/21 06:17:43;;;;;;;63.80;56.90;;;;;;;51.32;8.19;98590.61;108510;1280;22059;-80
2023/10/21 06:20:33;;;;;;;44.10;38.80;;;;;;;51.04;8.33;98605.23;108768;1280;22013;-79
2023/10/21 06:23:09;;;;;;;49.50;37.10;;;;;;;51.12;8.41;98610.61;108772;1280;23643;-81
2023/10/21 06:28:40;;;;;;;52.00;38.90;;;;;;;51.41;8.23;98611.02;108751;1280;22013;-80
2023/10/21 06:31:14;;;;;;;47.80;35.40;;;;;;;51.36;8.29;98600.85;108739;1267;21991;-80
2023/10/21 06:33:46;;;;;;;53.30;35.80;;;;;;;51.33;8.42;98592.55;108740;1280;22553;-79
2023/10/21 06:36:23;;;;;;;42.90;33.50;;;;;;;51.43;8.41;98585.63;108780;1276;24087;-80
2023/10/21 06:39:07;;;;;;;;;;;;;;;;;;;;;
2023/10/21 06:41:45;;;;;;;45.20;35.00;;;;;;;51.78;8.43;98588.21;108166;1286;22026;-80
2023/10/21 06:44:17;;;;;;;54.60;38.50;;;;;;;51.78;8.35;98600.77;108312;1286;22000;-79
2023/10/21 06:46:53;;;;;;;51.10;41.50;;;;;;;51.90;8.25;98612.91;108207;1286;23738;-80
2023/10/21 06:49:32;;;;;;;48.20;40.30;;;;;;;52.10;8.15;98606.91;108329;1283;22072;-79
2023/10/21 06:52:13;;;;;;;44.40;39.00;;;;;;;52.11;8.16;98599.36;108550;1286;23742;-78
2023/10/21 06:54:53;;;;;;;40.60;36.30;;;;;;;52.08;8.19;98607.21;108122;1280;23726;-80
2023/10/21 06:57:30;;;;;;;43.70;36.80;;;;;;;52.07;8.09;98615.77;108025;1284;21996;-78
2023/10/21 07:00:12;;;;;;;40.00;35.70;;;;;;;52.09;8.18;98622.86;108399;1284;23300;-80
2023/10/21 07:02:50;;;;;;;42.20;36.30;;;;;;;52.18;8.18;98633.34;108231;1284;23127;-79
2023/10/21 07:05:37;;;;;;;41.30;35.00;;;;;;;52.15;8.13;98644.01;108443;1284;23661;-80
2023/10/21 07:08:10;;;;;;;44.20;37.30;;;;;;;52.23;8.09;98657.49;108411;1284;21987;-77
2023/10/21 07:10:56;;;;;;;46.80;40.30;;;;;;;52.28;8.06;98670.49;108332;1284;22190;-79
2023/10/21 07:13:33;;;;;;;44.30;39.50;;;;;;;52.36;8.08;98674.28;108094;1284;22016;-79
2023/10/21 07:16:10;;;;;;;43.60;38.80;;;;;;;52.39;8.17;98686.00;108228;1284;22786;-79
2023/10/21 07:18:41;;;;;;;44.50;39.40;;;;;;;52.37;8.07;98693.67;108380;1284;22018;-78
2023/10/21 07:21:16;;;;;;;46.30;41.40;;;;;;;52.42;8.06;98692.71;108509;1267;22266;-78
2023/10/21 07:24:12;;;;;;;52.00;46.50;;;;;;;52.54;8.06;98697.48;108693;1267;21996;-78
2023/10/21 07:27:01;;;;;;;48.90;43.70;;;;;;;52.70;7.96;98704.11;108726;1280;22762;-78
2023/10/21 07:29:35;;;;;;;48.50;42.90;;;;;;;52.63;7.98;98706.51;108529;1276;21983;-79
2023/10/21 07:32:10;;;;;;;52.80;46.20;;;;;;;52.43;8.13;98709.51;108178;1285;23770;-79
2023/10/21 07:34:46;;;;;;;55.20;49.40;;;;;;;52.43;8.22;98701.40;108196;1285;22012;-80
2023/10/21 07:37:40;;;;;;;52.00;44.10;;;;;;;52.49;8.10;98700.45;108314;1284;23650;-79
2023/10/21 07:40:31;;;;;;;48.10;41.70;;;;;;;52.55;8.05;98714.28;108244;1285;22466;-78
2023/10/21 07:43:08;;;;;;;48.50;41.10;;;;;;;52.57;8.05;98726.00;108144;1285;23101;-78
2023/10/21 07:45:52;;;;;;;54.00;48.50;;;;;;;52.49;8.16;98722.55;108209;1285;23612;-84
2023/10/21 07:48:32;;;;;;;66.60;59.30;;;;;;;52.69;8.04;98721.61;108064;1276;22105;-81
2023/10/21 07:51:06;;;;;;;51.90;46.50;;;;;;;52.50;8.16;98728.52;108057;1289;21990;-81
2023/10/21 07:53:46;;;;;;;55.80;49.80;;;;;;;52.68;8.21;98720.89;108033;1293;23748;-82
2023/10/21 07:56:20;;;;;;;52.60;47.10;;;;;;;52.68;8.04;98719.45;107910;1289;22095;-82
2023/10/21 07:58:58;;;;;;;48.90;43.70;;;;;;;52.80;8.07;98712.67;108485;1289;22052;-80
2023/10/21 08:01:35;;;;;;;46.20;40.90;;;;;;;52.92;8.02;98716.94;108140;1289;22007;-81
2023/10/21 08:04:11;;;;;;;45.90;39.90;;;;;;;53.01;8.03;98712.34;107569;1295;21972;-80
2023/10/21 08:06:44;;;;;;;50.00;40.80;;;;;;;53.07;8.10;98712.96;107571;1297;23098;-81
2023/10/21 08:09:24;;;;;;;49.10;42.50;;;;;;;53.25;7.94;98720.71;107558;1297;23075;-82
2023/10/21 08:11:54;;;;;;;50.70;42.80;;;;;;;53.34;7.97;98735.36;107688;1294;22038;-81
2023/10/21 08:14:30;;;;;;;52.80;41.50;;;;;;;53.41;8.02;98742.36;107986;1293;22041;-82
2023/10/21 08:17:12;;;;;;;49.90;41.00;;;;;;;53.46;7.97;98754.67;107501;1299;22542;-84
2023/10/21 08:19:57;;;;;;;47.70;42.30;;;;;;;53.58;7.89;98757.50;107306;1299;22512;-86
2023/10/21 08:22:44;;;;;;;51.70;43.50;;;;;;;53.71;7.66;98763.66;107630;1292;23203;-84
2023/10/21 08:25:45;;;;;;;49.30;42.60;;;;;;;53.91;7.71;98774.11;108065;1288;22181;-83
2023/10/21 08:29:10;;;;;;;46.60;41.50;;;;;;;53.92;7.77;98774.91;108368;1288;22036;-83
2023/10/21 08:32:24;;;;;;;55.70;43.50;;;;;;;54.07;7.69;98779.73;107951;1293;23107;-84
2023/10/21 08:35:04;;;;;;;50.50;42.70;;;;;;;54.20;7.72;98791.29;107661;1294;22729;-83
2023/10/21 08:37:58;;;;;;;;;;;;;;;54.21;7.72;98799.02;108187;1289;23641;-85
2023/10/21 08:41:07;;;;;;;58.90;49.10;;;;;;;54.58;7.75;98810.36;109479;1279;22440;-81
2023/10/21 08:43:44;;;;;;;71.40;63.80;;;;;;;54.73;7.66;98821.85;109245;1279;23721;-83
2023/10/21 08:46:28;;;;;;;61.90;55.10;;;;;;;54.83;7.67;98830.42;108907;1279;23055;-86
2023/10/21 08:49:25;;;;;;;56.40;48.60;;;;;;;55.16;7.48;98837.42;108949;1279;21989;-85
2023/10/21 08:52:08;;;;;;;53.40;44.30;;;;;;;55.32;7.20;98841.63;108887;1278;22010;-86
2023/10/21 08:54:48;;;;;;;55.80;44.40;;;;;;;55.53;7.31;98852.61;108932;1278;22024;-86
2023/10/21 08:57:22;;;;;;;56.20;46.50;;;;;;;55.42;7.35;98862.18;108885;1279;22250;-84
2023/10/21 09:00:15;;;;;;;57.40;48.00;;;;;;;55.50;7.29;98860.12;108828;1279;21986;-85
2023/10/21 09:02:46;;;;;;;52.50;44.80;;;;;;;56.16;7.39;98851.60;108987;1279;22003;-84
2023/10/21 09:05:17;;;;;;;58.20;45.10;;;;;;;56.73;7.37;98855.66;108899;1279;22050;-84
2023/10/21 09:07:55;;;;;;;42.70;37.70;;;;;;;57.11;7.14;98845.52;108866;1279;24425;-85
2023/10/21 09:10:40;;;;;;;;;;;;;;;;;;;;;
2023/10/21 09:13:51;;;;;;;39.60;35.50;;;;;;;57.25;6.82;98839.37;108725;1283;22064;-85
2023/10/21 09:16:31;;;;;;;43.30;38.70;;;;;;;57.07;6.72;98856.11;108669;1283;21995;-83
2023/10/21 09:19:14;;;;;;;41.70;35.80;;;;;;;57.10;7.03;98851.46;108574;1283;23053;-83
2023/10/21 09:21:59;;;;;;;;;;;;;;;57.82;6.90;98848.98;108354;1286;21967;-86
2023/10/21 09:25:24;;;;;;;50.50;45.20;;;;;;;58.26;6.55;98852.86;108527;1290;22050;-84
2023/10/21 09:28:08;;;;;;;44.20;37.90;;;;;;;58.29;6.55;98859.17;108051;1290;23180;-84
2023/10/21 09:30:58;;;;;;;41.80;37.50;;;;;;;58.47;6.50;98858.51;107961;1290;22512;-81
2023/10/21 09:33:52;;;;;;;40.00;36.00;;;;;;;58.80;6.44;98856.77;108166;1290;23080;-82
2023/10/21 09:36:27;;;;;;;39.30;35.30;;;;;;;58.57;6.17;98858.71;107888;1294;21965;-82
2023/10/21 09:38:58;;;;;;;40.90;36.60;;;;;;;58.24;6.33;98858.17;107534;1292;23023;-82
2023/10/21 09:41:37;;;;;;;36.40;32.80;;;;;;;58.54;6.59;98858.73;108061;1292;22007;-81
2023/10/21 09:44:31;;;;;;;39.70;31.30;;;;;;;59.12;6.38;98859.73;108552;1284;22386;-82
2023/10/21 09:47:15;;;;;;;34.10;30.60;;;;;;;59.26;6.07;98859.23;108566;1284;23027;-82
2023/10/21 09:49:49;;;;;;;35.10;29.20;;;;;;;59.00;5.97;98868.17;108533;1284;22014;-82
2023/10/21 09:52:56;;;;;;;56.70;43.60;;;;;;;59.19;6.02;98870.58;108562;1284;23724;-83
2023/10/21 09:55:31;;;;;;;45.10;39.20;;;;;;;59.09;6.01;98878.02;108829;1278;21999;-82
2023/10/21 09:58:14;;;;;;;39.70;33.70;;;;;;;58.84;6.17;98879.44;108838;1279;21993;-81
2023/10/21 10:01:08;;;;;;;35.50;31.50;;;;;;;58.69;6.12;98881.06;108833;1279;24304;-83
2023/10/21 10:04:09;;;;;;;;;;;;;;;;;;;;;
2023/10/21 10:06:59;;;;;;;29.70;26.10;;;;;;;58.14;6.31;98897.00;108823;1279;23718;-80
2023/10/21 10:09:37;;;;;;;32.00;28.60;;;;;;;58.16;6.42;98900.85;108772;1279;21985;-79
2023/10/21 10:13:02;;;;;;;;;;;;;;;;;;;;;
2023/10/21 10:16:42;;;;;;;40.70;36.40;;;;;;;58.40;6.48;98904.09;108341;1288;22028;-81
2023/10/21 10:19:43;;;;;;;41.10;35.90;;;;;;;58.21;6.51;98894.95;108233;1288;22044;-78
2023/10/21 10:22:32;;;;;;;38.70;35.00;;;;;;;57.99;6.64;98888.23;108195;1288;22087;-79
2023/10/21 10:25:26;;;;;;;39.20;35.10;;;;;;;57.85;6.70;98890.27;108080;1288;22000;-78
2023/10/21 10:28:11;;;;;;;35.40;31.00;;;;;;;58.21;6.63;98892.38;108029;1288;22063;-79
2023/10/21 10:30:50;;;;;;;33.40;29.90;;;;;;;58.01;6.74;98899.37;108143;1287;21988;-77
2023/10/21 10:33:38;;;;;;;32.00;28.40;;;;;;;57.62;6.88;98904.69;107974;1288;22861;-78
2023/10/21 10:36:13;;;;;;;30.70;27.40;;;;;;;57.68;6.93;98905.54;107960;1288;22007;-79
2023/10/21 10:38:54;;;;;;;29.10;26.10;;;;;;;57.94;7.04;98903.02;108058;1288;22005;-79
2023/10/21 10:41:29;;;;;;;27.30;24.50;;;;;;;58.56;6.93;98899.10;107742;1292;22388;-79
2023/10/21 10:44:06;;;;;;;27.10;24.20;;;;;;;59.14;6.81;98898.90;107740;1292;22006;-79
2023/10/21 10:46:37;;;;;;;28.00;24.90;;;;;;;59.83;6.80;98902.01;107896;1292;22041;-80
2023/10/21 10:49:10;;;;;;;26.10;23.20;;;;;;;60.16;6.47;98903.98;107776;1292;22006;-79
2023/10/21 10:51:47;;;;;;;26.10;23.70;;;;;;;60.04;6.23;98911.66;107878;1285;22138;-79
2023/10/21 10:54:18;;;;;;;28.00;25.30;;;;;;;60.28;6.36;98920.73;108489;1285;22131;-78
2023/10/21 10:56:57;;;;;;;28.40;25.40;;;;;;;60.53;6.00;98924.55;108329;1285;22092;-80
2023/10/21 10:59:35;;;;;;;28.20;25.40;;;;;;;60.39;5.78;98938.25;108395;1285;22009;-79
2023/10/21 11:02:14;;;;;;;26.50;23.90;;;;;;;60.09;5.99;98952.52;108188;1285;24323;-79
2023/10/21 11:05:06;;;;;;;29.30;26.40;;;;;;;59.90;6.26;98952.27;108192;1285;21998;-79
2023/10/21 11:08:00;;;;;;;28.30;25.50;;;;;;;59.80;6.23;98951.52;108993;1280;23132;-79
2023/10/21 11:10:38;;;;;;;29.20;26.10;;;;;;;59.82;6.29;98955.77;108776;1280;22039;-79
2023/10/21 11:13:33;;;;;;;38.50;34.50;;;;;;;59.57;6.48;98953.08;108532;1284;22010;-81
2023/10/21 11:16:07;;;;;;;33.70;30.20;;;;;;;59.58;6.45;98946.63;108529;1283;22010;-80
2023/10/21 11:18:43;;;;;;;33.40;30.20;;;;;;;59.44;6.48;98950.02;108491;1284;22048;-79
2023/10/21 11:21:36;;;;;;;32.60;28.70;;;;;;;59.08;6.49;98956.50;108516;1284;21990;-81
2023/10/21 11:24:19;;;;;;;32.00;28.70;;;;;;;59.01;6.52;98969.04;108480;1284;22974;-79
2023/10/21 11:27:06;;;;;;;41.10;36.80;;;;;;;58.92;6.76;98975.08;108679;1284;23721;-80
2023/10/21 11:29:55;;;;;;;37.50;33.70;;;;;;;59.06;6.88;98971.88;108647;1284;22422;-79
2023/10/21 11:32:44;;;;;;;38.10;34.50;;;;;;;58.89;6.86;98969.65;108549;1283;23623;-81
2023/10/21 11:35:32;;;;;;;35.00;31.80;;;;;;;59.06;6.83;98968.65;108307;1290;22052;-84
2023/10/21 11:38:12;;;;;;;34.60;31.20;;;;;;;59.37;6.70;98967.40;108475;1287;22019;-84
2023/10/21 11:41:14;;;;;;;37.80;34.00;;;;;;;59.68;6.67;98969.96;108423;1287;22024;-86
2023/10/21 11:44:15;;;;;;;35.00;31.70;;;;;;;59.74;6.69;98973.65;108529;1286;23662;-83
2023/10/21 11:47:06;;;;;;;34.60;31.40;;;;;;;59.62;6.55;98978.80;108371;1291;22020;-83
2023/10/21 11:49:49;;;;;;;37.00;33.40;;;;;;;59.50;6.85;98984.91;108335;1282;22005;-82
2023/10/21 11:52:43;;;;;;;44.50;40.40;;;;;;;59.34;7.02;98993.55;108400;1286;22795;-82
2023/10/21 12:09:25;;;;;;;36.80;33.30;;;;;;;59.82;6.88;99013.90;108640;1284;22195;-82
2023/10/21 12:14:04;;;;;;;35.10;32.00;;;;;;;59.71;7.02;99019.69;107986;1295;23752;-81
2023/10/21 12:22:54;;;;;;;35.30;31.90;;;;;;;60.13;6.90;99021.35;107902;1295;22025;-87
2023/10/21 12:44:06;;;;;;;29.70;26.60;;;;;;;60.37;6.95;99045.20;110430;1269;22010;-85
2023/10/21 12:47:13;;;;;;;30.70;27.80;;;;;;;60.25;6.88;99054.38;108381;1293;22543;-84
2023/10/21 12:50:12;;;;;;;30.90;27.60;;;;;;;60.21;6.95;99061.51;108315;1293;22031;-84
2023/10/21 12:53:20;;;;;;;;;;;;;;;;;;;;;
2023/10/21 12:56:13;;;;;;;25.50;22.70;;;;;;;60.53;6.97;99074.80;108181;1293;22476;-84
2023/10/21 12:59:07;;;;;;;24.10;21.90;;;;;;;60.55;6.90;99081.60;108099;1294;22276;-83
2023/10/21 13:01:55;;;;;;;23.10;21.00;;;;;;;60.86;6.65;99082.38;108095;1293;22026;-84
2023/10/21 13:04:57;;;;;;;;;;;;;;;;;;;;;
2023/10/21 13:07:54;;;;;;;22.90;20.50;;;;;;;61.18;6.48;99076.48;108067;1293;22795;-85
2023/10/21 13:10:33;;;;;;;33.00;20.60;;;;;;;61.04;6.62;99085.84;108131;1293;22853;-84
2023/10/21 13:13:34;;;;;;;;;;;;;;;;;;;;;
2023/10/21 13:16:37;;;;;;;;;;;;;;;;;;;;;
2023/10/21 13:20:00;;;;;;;22.70;11.20;;;;;;;61.22;6.17;99100.75;107604;1301;22771;-82
2023/10/21 13:22:56;;;;;;;27.60;19.30;;;;;;;61.16;6.25;99098.10;107438;1295;22024;-83
2023/10/21 13:25:47;;;;;;;17.80;16.10;;;;;;;61.01;6.28;99103.21;108494;1288;22025;-83
2023/10/21 13:31:52;;;;;;;21.70;17.40;;;;;;;61.20;6.24;99109.95;108339;1291;22016;-82